createdAt,value
2022-11-03T00:00:54.863Z,1003.38
2022-11-03T00:01:54.893Z,1003.35
2022-11-03T00:02:54.858Z,1003.36
2022-11-03T00:03:54.817Z,1003.32
2022-11-03T00:04:54.812Z,1003.31
2022-11-03T00:05:54.815Z,1003.32
2022-11-03T00:06:54.836Z,1003.29
2022-11-03T00:07:54.780Z,1003.25
2022-11-03T00:08:54.812Z,1003.27
2022-11-03T00:09:54.790Z,1003.31
2022-11-03T00:10:54.768Z,1003.32
2022-11-03T00:11:54.811Z,1003.33
2022-11-03T00:12:54.749Z,1003.30
2022-11-03T00:13:54.716Z,1003.33
2022-11-03T00:14:54.701Z,1003.35
2022-11-03T00:15:54.691Z,1003.37
2022-11-03T00:16:54.713Z,1003.36
2022-11-03T00:17:54.679Z,1003.35
2022-11-03T00:18:54.671Z,1003.35
2022-11-03T00:19:54.650Z,1003.31
2022-11-03T00:20:54.701Z,1003.30
2022-11-03T00:21:54.680Z,1003.29
2022-11-03T00:22:54.647Z,1003.28
2022-11-03T00:23:54.641Z,1003.28
2022-11-03T00:24:54.645Z,1003.28
2022-11-03T00:25:54.625Z,1003.27
2022-11-03T00:26:54.585Z,1003.27
2022-11-03T00:27:54.624Z,1003.26
2022-11-03T00:28:54.572Z,1003.25
2022-11-03T00:29:54.621Z,1003.23
2022-11-03T00:30:54.559Z,1003.23
2022-11-03T00:31:54.520Z,1003.21
2022-11-03T00:32:54.524Z,1003.24
2022-11-03T00:33:54.501Z,1003.20
2022-11-03T00:34:54.509Z,1003.20
2022-11-03T00:35:54.467Z,1003.18
2022-11-03T00:36:54.493Z,1003.13
2022-11-03T00:37:54.522Z,1003.16
2022-11-03T00:38:54.570Z,1003.15
2022-11-03T00:39:54.468Z,1003.17
2022-11-03T00:40:54.441Z,1003.13
2022-11-03T00:41:54.427Z,1003.13
2022-11-03T00:42:54.420Z,1003.07
2022-11-03T00:43:54.392Z,1003.05
2022-11-03T00:44:54.470Z,1003.04
2022-11-03T00:45:54.370Z,1003.05
2022-11-03T00:46:54.371Z,1003.08
2022-11-03T00:48:54.548Z,1003.07
2022-11-03T00:49:54.317Z,1003.10
2022-11-03T00:50:54.342Z,1003.10
2022-11-03T00:51:54.336Z,1003.10
2022-11-03T00:52:54.342Z,1003.10
2022-11-03T00:53:54.317Z,1003.12
2022-11-03T00:54:55.410Z,1003.12
2022-11-03T00:55:54.265Z,1003.10
2022-11-03T00:56:54.257Z,1003.10
2022-11-03T00:57:54.236Z,1003.05
2022-11-03T00:58:54.705Z,1003.04
2022-11-03T00:59:54.221Z,1003.03
2022-11-03T01:00:54.259Z,1003.02
2022-11-03T01:01:54.287Z,1003.01
2022-11-03T01:02:54.198Z,1002.98
2022-11-03T01:03:54.183Z,1002.97
2022-11-03T01:04:54.169Z,1002.98
2022-11-03T01:05:54.165Z,1002.97
2022-11-03T01:06:54.193Z,1002.98
2022-11-03T01:07:54.190Z,1002.95
2022-11-03T01:08:54.152Z,1002.93
2022-11-03T01:09:54.116Z,1002.93
2022-11-03T01:10:54.123Z,1002.93
2022-11-03T01:11:54.124Z,1002.92
2022-11-03T01:12:54.103Z,1002.89
2022-11-03T01:13:54.075Z,1002.89
2022-11-03T01:14:54.129Z,1002.83
2022-11-03T01:15:54.055Z,1002.79
2022-11-03T01:16:54.043Z,1002.82
2022-11-03T01:17:54.074Z,1002.84
2022-11-03T01:18:54.047Z,1002.81
2022-11-03T01:19:54.079Z,1002.81
2022-11-03T01:20:54.103Z,1002.85
2022-11-03T01:21:53.989Z,1002.84
2022-11-03T01:22:54.056Z,1002.87
2022-11-03T01:23:53.994Z,1002.88
2022-11-03T01:24:53.975Z,1002.82
2022-11-03T01:25:53.958Z,1002.84
2022-11-03T01:26:53.940Z,1002.82
2022-11-03T01:27:54.068Z,1002.80
2022-11-03T01:28:53.941Z,1002.78
2022-11-03T01:29:53.922Z,1002.75
2022-11-03T01:30:53.910Z,1002.75
2022-11-03T01:31:53.956Z,1002.71
2022-11-03T01:32:53.915Z,1002.71
2022-11-03T01:33:53.910Z,1002.68
2022-11-03T01:34:53.895Z,1002.67
2022-11-03T01:35:53.838Z,1002.66
2022-11-03T01:36:53.852Z,1002.63
2022-11-03T01:37:53.811Z,1002.63
2022-11-03T01:38:53.830Z,1002.62
2022-11-03T01:39:53.792Z,1002.57
2022-11-03T01:40:53.796Z,1002.54
2022-11-03T01:41:53.762Z,1002.54
2022-11-03T01:42:53.804Z,1002.51
2022-11-03T01:43:53.855Z,1002.47
2022-11-03T01:44:53.751Z,1002.43
2022-11-03T01:45:53.724Z,1002.43
2022-11-03T01:46:53.735Z,1002.37
2022-11-03T01:47:53.780Z,1002.37
2022-11-03T01:48:53.695Z,1002.36
2022-11-03T01:49:53.698Z,1002.32
2022-11-03T01:50:53.692Z,1002.31
2022-11-03T01:51:53.683Z,1002.27
2022-11-03T01:52:53.673Z,1002.30
2022-11-03T01:53:53.729Z,1002.24
2022-11-03T01:54:53.659Z,1002.25
2022-11-03T01:55:53.668Z,1002.22
2022-11-03T01:56:53.634Z,1002.17
2022-11-03T01:57:53.607Z,1002.14
2022-11-03T01:58:53.619Z,1002.12
2022-11-03T01:59:53.624Z,1002.11
2022-11-03T02:00:53.810Z,1002.07
2022-11-03T02:01:53.670Z,1002.04
2022-11-03T02:02:53.579Z,1002.04
2022-11-03T02:03:53.540Z,1002.04
2022-11-03T02:04:53.553Z,1002.03
2022-11-03T02:05:53.509Z,1002.02
2022-11-03T02:06:53.550Z,1002.01
2022-11-03T02:07:53.578Z,1001.98
2022-11-03T02:08:53.502Z,1001.97
2022-11-03T02:09:54.113Z,1001.94
2022-11-03T02:10:53.477Z,1001.89
2022-11-03T02:11:53.473Z,1001.92
2022-11-03T02:12:53.467Z,1001.88
2022-11-03T02:13:53.442Z,1001.89
2022-11-03T02:14:53.432Z,1001.87
2022-11-03T02:15:53.433Z,1001.87
2022-11-03T02:16:53.420Z,1001.84
2022-11-03T02:17:53.393Z,1001.86
2022-11-03T02:18:53.405Z,1001.85
2022-11-03T02:19:53.436Z,1001.85
2022-11-03T02:20:53.366Z,1001.85
2022-11-03T02:21:53.365Z,1001.85
2022-11-03T02:22:53.344Z,1001.79
2022-11-03T02:23:53.337Z,1001.81
2022-11-03T02:24:54.299Z,1001.78
2022-11-03T02:25:53.292Z,1001.79
2022-11-03T02:26:53.322Z,1001.80
2022-11-03T02:27:53.297Z,1001.78
2022-11-03T02:29:53.291Z,1001.79
2022-11-03T02:30:53.267Z,1001.72
2022-11-03T02:31:53.274Z,1001.71
2022-11-03T02:32:53.251Z,1001.69
2022-11-03T02:33:53.255Z,1001.72
2022-11-03T02:34:53.233Z,1001.73
2022-11-03T02:35:53.193Z,1001.71
2022-11-03T02:36:53.206Z,1001.66
2022-11-03T02:37:53.203Z,1001.65
2022-11-03T02:38:53.289Z,1001.63
2022-11-03T02:39:53.154Z,1001.66
2022-11-03T02:40:53.152Z,1001.66
2022-11-03T02:41:53.133Z,1001.64
2022-11-03T02:42:53.155Z,1001.60
2022-11-03T02:43:53.139Z,1001.58
2022-11-03T02:44:53.119Z,1001.56
2022-11-03T02:45:53.088Z,1001.51
2022-11-03T02:46:53.090Z,1001.48
2022-11-03T02:47:53.071Z,1001.49
2022-11-03T02:48:53.101Z,1001.48
2022-11-03T02:49:53.105Z,1001.43
2022-11-03T02:50:53.051Z,1001.46
2022-11-03T02:51:53.026Z,1001.46
2022-11-03T02:52:53.047Z,1001.48
2022-11-03T02:53:53.074Z,1001.43
2022-11-03T02:54:53.022Z,1001.44
2022-11-03T02:55:53.027Z,1001.44
2022-11-03T02:56:52.973Z,1001.39
2022-11-03T02:57:52.958Z,1001.37
2022-11-03T02:58:52.988Z,1001.31
2022-11-03T02:59:52.974Z,1001.32
2022-11-03T03:00:52.988Z,1001.28
2022-11-03T03:01:53.046Z,1001.25
2022-11-03T03:02:52.954Z,1001.31
2022-11-03T03:03:52.902Z,1001.30
2022-11-03T03:04:52.898Z,1001.27
2022-11-03T03:05:52.898Z,1001.24
2022-11-03T03:06:52.884Z,1001.24
2022-11-03T03:07:52.862Z,1001.24
2022-11-03T03:08:52.937Z,1001.22
2022-11-03T03:09:52.932Z,1001.20
2022-11-03T03:10:52.899Z,1001.18
2022-11-03T03:11:52.840Z,1001.16
2022-11-03T03:12:52.804Z,1001.14
2022-11-03T03:13:52.787Z,1001.15
2022-11-03T03:14:52.860Z,1001.17
2022-11-03T03:15:52.801Z,1001.14
2022-11-03T03:16:52.848Z,1001.14
2022-11-03T03:17:52.834Z,1001.16
2022-11-03T03:18:52.758Z,1001.15
2022-11-03T03:19:52.727Z,1001.14
2022-11-03T03:20:52.801Z,1001.11
2022-11-03T03:21:52.705Z,1001.12
2022-11-03T03:22:52.707Z,1001.10
2022-11-03T03:23:52.704Z,1001.12
2022-11-03T03:24:52.680Z,1001.16
2022-11-03T03:25:52.691Z,1001.12
2022-11-03T03:26:52.684Z,1001.09
2022-11-03T03:27:52.701Z,1001.10
2022-11-03T03:28:52.646Z,1001.10
2022-11-03T03:29:52.635Z,1001.09
2022-11-03T03:30:52.630Z,1001.10
2022-11-03T03:31:52.643Z,1001.09
2022-11-03T03:32:52.591Z,1001.11
2022-11-03T03:33:59.747Z,1001.02
2022-11-03T03:34:52.609Z,1001.05
2022-11-03T03:35:52.565Z,1001.00
2022-11-03T03:36:52.604Z,1001.01
2022-11-03T03:37:52.553Z,1001.00
2022-11-03T03:38:52.549Z,1000.99
2022-11-03T03:39:52.521Z,1000.97
2022-11-03T03:40:52.513Z,1000.98
2022-11-03T03:41:52.507Z,1000.97
2022-11-03T03:42:52.618Z,1000.96
2022-11-03T03:43:52.535Z,1000.97
2022-11-03T03:44:52.506Z,1000.95
2022-11-03T03:45:52.498Z,1000.91
2022-11-03T03:46:52.485Z,1000.89
2022-11-03T03:47:57.295Z,1000.87
2022-11-03T03:48:52.425Z,1000.85
2022-11-03T03:49:52.468Z,1000.87
2022-11-03T03:50:52.459Z,1000.85
2022-11-03T03:51:52.408Z,1000.84
2022-11-03T03:52:52.382Z,1000.82
2022-11-03T03:53:52.401Z,1000.80
2022-11-03T03:54:52.364Z,1000.81
2022-11-03T03:55:52.362Z,1000.82
2022-11-03T03:56:52.348Z,1000.87
2022-11-03T03:57:54.272Z,1000.84
2022-11-03T03:58:52.409Z,1000.83
2022-11-03T03:59:52.317Z,1000.82
2022-11-03T04:00:52.413Z,1000.83
2022-11-03T04:01:52.421Z,1000.81
2022-11-03T04:02:52.312Z,1000.78
2022-11-03T04:03:52.275Z,1000.77
2022-11-03T04:04:52.273Z,1000.78
2022-11-03T04:05:52.260Z,1000.82
2022-11-03T04:06:52.266Z,1000.76
2022-11-03T04:07:52.250Z,1000.76
2022-11-03T04:08:52.227Z,1000.75
2022-11-03T04:09:52.238Z,1000.72
2022-11-03T04:10:52.213Z,1000.71
2022-11-03T04:11:52.270Z,1000.71
2022-11-03T04:12:52.192Z,1000.70
2022-11-03T04:13:52.169Z,1000.70
2022-11-03T04:14:52.161Z,1000.68
2022-11-03T04:15:52.149Z,1000.67
2022-11-03T04:16:52.146Z,1000.66
2022-11-03T04:17:52.149Z,1000.66
2022-11-03T04:18:52.106Z,1000.67
2022-11-03T04:19:52.207Z,1000.62
2022-11-03T04:20:52.082Z,1000.63
2022-11-03T04:21:52.097Z,1000.63
2022-11-03T04:22:52.163Z,1000.61
2022-11-03T04:23:52.050Z,1000.60
2022-11-03T04:24:52.063Z,1000.59
2022-11-03T04:25:52.055Z,1000.58
2022-11-03T04:26:52.028Z,1000.58
2022-11-03T04:27:52.057Z,1000.56
2022-11-03T04:28:52.031Z,1000.56
2022-11-03T04:29:51.989Z,1000.55
2022-11-03T04:30:54.710Z,1000.52
2022-11-03T04:31:51.970Z,1000.51
2022-11-03T04:32:52.185Z,1000.55
2022-11-03T04:33:51.963Z,1000.52
2022-11-03T04:34:51.972Z,1000.51
2022-11-03T04:35:51.977Z,1000.50
2022-11-03T04:36:51.923Z,1000.49
2022-11-03T04:37:53.531Z,1000.47
2022-11-03T04:38:51.909Z,1000.44
2022-11-03T04:39:51.932Z,1000.43
2022-11-03T04:40:53.798Z,1000.42
2022-11-03T04:41:51.868Z,1000.40
2022-11-03T04:42:51.843Z,1000.39
2022-11-03T04:43:51.864Z,1000.41
2022-11-03T04:44:51.819Z,1000.38
2022-11-03T04:45:51.814Z,1000.37
2022-11-03T04:46:51.804Z,1000.31
2022-11-03T04:47:51.802Z,1000.32
2022-11-03T04:48:51.793Z,1000.34
2022-11-03T04:49:51.868Z,1000.33
2022-11-03T04:50:51.860Z,1000.32
2022-11-03T04:51:51.976Z,1000.32
2022-11-03T04:52:51.827Z,1000.34
2022-11-03T04:53:51.859Z,1000.32
2022-11-03T04:54:51.789Z,1000.30
2022-11-03T04:55:51.727Z,1000.27
2022-11-03T04:56:51.699Z,1000.26
2022-11-03T04:57:51.716Z,1000.23
2022-11-03T04:58:51.736Z,1000.22
2022-11-03T04:59:51.677Z,1000.20
2022-11-03T05:00:51.711Z,1000.20
2022-11-03T05:01:51.871Z,1000.16
2022-11-03T05:02:55.779Z,1000.18
2022-11-03T05:03:51.637Z,1000.16
2022-11-03T05:04:51.618Z,1000.14
2022-11-03T05:05:51.638Z,1000.13
2022-11-03T05:06:51.593Z,1000.10
2022-11-03T05:07:51.617Z,1000.10
2022-11-03T05:08:51.580Z,1000.07
2022-11-03T05:09:51.568Z,1000.07
2022-11-03T05:10:51.557Z,1000.00
2022-11-03T05:11:51.536Z,1000.02
2022-11-03T05:12:51.546Z,1000.01
2022-11-03T05:13:51.565Z,999.99
2022-11-03T05:14:55.555Z,999.98
2022-11-03T05:15:51.525Z,999.97
2022-11-03T05:16:51.489Z,999.96
2022-11-03T05:17:51.504Z,999.94
2022-11-03T05:18:51.486Z,999.90
2022-11-03T05:19:51.470Z,999.90
2022-11-03T05:20:51.448Z,999.88
2022-11-03T05:21:51.484Z,999.88
2022-11-03T05:22:51.463Z,999.89
2022-11-03T05:23:51.537Z,999.88
2022-11-03T05:24:51.470Z,999.87
2022-11-03T05:25:51.399Z,999.85
2022-11-03T05:26:51.377Z,999.81
2022-11-03T05:27:51.391Z,999.79
2022-11-03T05:28:51.409Z,999.83
2022-11-03T05:29:53.987Z,999.81
2022-11-03T05:30:51.338Z,999.80
2022-11-03T05:31:51.338Z,999.77
2022-11-03T05:32:51.423Z,999.77
2022-11-03T05:33:51.318Z,999.76
2022-11-03T05:34:51.308Z,999.71
2022-11-03T05:35:51.292Z,999.71
2022-11-03T05:36:51.311Z,999.68
2022-11-03T05:37:51.318Z,999.69
2022-11-03T05:38:51.274Z,999.71
2022-11-03T05:39:51.262Z,999.68
2022-11-03T05:40:51.232Z,999.69
2022-11-03T05:41:51.232Z,999.71
2022-11-03T05:42:51.220Z,999.69
2022-11-03T05:43:51.278Z,999.63
2022-11-03T05:44:51.298Z,999.71
2022-11-03T05:45:51.231Z,999.69
2022-11-03T05:46:51.769Z,999.69
2022-11-03T05:47:51.155Z,999.68
2022-11-03T05:48:51.439Z,999.69
2022-11-03T05:49:51.159Z,999.66
2022-11-03T05:50:51.126Z,999.63
2022-11-03T05:51:51.139Z,999.62
2022-11-03T05:52:51.094Z,999.64
2022-11-03T05:53:51.101Z,999.62
2022-11-03T05:54:51.231Z,999.60
2022-11-03T05:55:51.094Z,999.63
2022-11-03T05:56:51.099Z,999.63
2022-11-03T05:57:51.095Z,999.64
2022-11-03T05:58:51.183Z,999.59
2022-11-03T05:59:51.039Z,999.58
2022-11-03T06:00:50.975Z,999.59
2022-11-03T06:01:51.124Z,999.55
2022-11-03T06:02:51.083Z,999.54
2022-11-03T06:03:51.006Z,999.53
2022-11-03T06:04:50.948Z,999.51
2022-11-03T06:05:50.944Z,999.49
2022-11-03T06:06:50.955Z,999.48
2022-11-03T06:07:50.919Z,999.46
2022-11-03T06:08:50.964Z,999.44
2022-11-03T06:09:50.887Z,999.44
2022-11-03T06:10:50.865Z,999.44
2022-11-03T06:11:50.843Z,999.46
2022-11-03T06:12:50.896Z,999.45
2022-11-03T06:13:50.928Z,999.43
2022-11-03T06:14:51.886Z,999.41
2022-11-03T06:15:50.807Z,999.43
2022-11-03T06:16:50.787Z,999.44
2022-11-03T06:17:50.855Z,999.45
2022-11-03T06:18:50.765Z,999.40
2022-11-03T06:19:50.767Z,999.42
2022-11-03T06:20:50.770Z,999.40
2022-11-03T06:21:50.753Z,999.38
2022-11-03T06:22:50.735Z,999.41
2022-11-03T06:23:50.729Z,999.38
2022-11-03T06:24:50.703Z,999.37
2022-11-03T06:25:50.701Z,999.34
2022-11-03T06:26:50.678Z,999.36
2022-11-03T06:27:50.704Z,999.33
2022-11-03T06:28:50.661Z,999.30
2022-11-03T06:29:50.647Z,999.25
2022-11-03T06:30:52.072Z,999.26
2022-11-03T06:31:50.631Z,999.30
2022-11-03T06:32:50.616Z,999.29
2022-11-03T06:33:50.634Z,999.30
2022-11-03T06:34:50.588Z,999.27
2022-11-03T06:35:50.593Z,999.28
2022-11-03T06:36:50.575Z,999.26
2022-11-03T06:37:50.575Z,999.24
2022-11-03T06:38:50.573Z,999.19
2022-11-03T06:39:50.572Z,999.17
2022-11-03T06:40:50.541Z,999.14
2022-11-03T06:41:50.538Z,999.17
2022-11-03T06:42:50.524Z,999.14
2022-11-03T06:43:50.526Z,999.11
2022-11-03T06:44:50.515Z,999.13
2022-11-03T06:45:50.509Z,999.16
2022-11-03T06:46:50.470Z,999.15
2022-11-03T06:47:50.460Z,999.11
2022-11-03T06:48:50.467Z,999.12
2022-11-03T06:49:50.453Z,999.13
2022-11-03T06:50:50.440Z,999.09
2022-11-03T06:51:50.428Z,999.07
2022-11-03T06:52:50.440Z,999.06
2022-11-03T06:53:50.401Z,999.03
2022-11-03T06:54:50.378Z,998.98
2022-11-03T06:55:50.396Z,998.94
2022-11-03T06:56:50.366Z,998.99
2022-11-03T06:57:50.378Z,999.00
2022-11-03T06:58:50.329Z,999.01
2022-11-03T06:59:56.985Z,999.02
2022-11-03T07:00:51.491Z,999.02
2022-11-03T07:01:50.429Z,999.07
2022-11-03T07:02:50.302Z,999.01
2022-11-03T07:03:50.313Z,999.04
2022-11-03T07:04:50.283Z,999.03
2022-11-03T07:05:50.268Z,999.07
2022-11-03T07:06:53.295Z,999.03
2022-11-03T07:07:50.264Z,999.00
2022-11-03T07:08:50.256Z,998.95
2022-11-03T07:09:50.269Z,998.96
2022-11-03T07:10:50.225Z,998.94
2022-11-03T07:11:50.211Z,998.89
2022-11-03T07:12:50.201Z,998.91
2022-11-03T07:13:50.205Z,998.89
2022-11-03T07:14:50.161Z,998.91
2022-11-03T07:15:50.170Z,998.90
2022-11-03T07:16:50.178Z,998.90
2022-11-03T07:17:50.196Z,998.88
2022-11-03T07:18:50.198Z,998.90
2022-11-03T07:19:50.136Z,998.84
2022-11-03T07:20:50.118Z,998.85
2022-11-03T07:21:50.126Z,998.82
2022-11-03T07:22:50.088Z,998.80
2022-11-03T07:23:50.142Z,998.76
2022-11-03T07:24:50.070Z,998.77
2022-11-03T07:25:50.068Z,998.74
2022-11-03T07:26:50.037Z,998.74
2022-11-03T07:27:50.037Z,998.75
2022-11-03T07:28:50.058Z,998.75
2022-11-03T07:29:50.096Z,998.72
2022-11-03T07:30:50.022Z,998.71
2022-11-03T07:31:49.988Z,998.71
2022-11-03T07:32:49.978Z,998.69
2022-11-03T07:33:50.002Z,998.67
2022-11-03T07:34:49.971Z,998.65
2022-11-03T07:36:54.434Z,998.64
2022-11-03T07:37:49.975Z,998.60
2022-11-03T07:38:49.962Z,998.58
2022-11-03T07:39:49.944Z,998.53
2022-11-03T07:40:49.904Z,998.51
2022-11-03T07:41:49.893Z,998.52
2022-11-03T07:42:50.067Z,998.53
2022-11-03T07:43:49.884Z,998.55
2022-11-03T07:44:50.145Z,998.54
2022-11-03T07:45:49.843Z,998.55
2022-11-03T07:46:49.824Z,998.58
2022-11-03T07:47:49.827Z,998.59
2022-11-03T07:48:49.830Z,998.58
2022-11-03T07:49:49.834Z,998.56
2022-11-03T07:50:49.777Z,998.52
2022-11-03T07:51:49.915Z,998.50
2022-11-03T07:52:49.760Z,998.52
2022-11-03T07:53:49.769Z,998.49
2022-11-03T07:54:49.778Z,998.47
2022-11-03T07:55:49.818Z,998.49
2022-11-03T07:56:49.738Z,998.48
2022-11-03T07:57:49.720Z,998.45
2022-11-03T07:58:49.698Z,998.45
2022-11-03T07:59:49.748Z,998.47
2022-11-03T08:00:49.676Z,998.44
2022-11-03T08:01:49.795Z,998.40
2022-11-03T08:02:49.746Z,998.42
2022-11-03T08:03:49.648Z,998.40
2022-11-03T08:04:49.744Z,998.38
2022-11-03T08:05:49.655Z,998.37
2022-11-03T08:06:49.697Z,998.37
2022-11-03T08:07:49.677Z,998.41
2022-11-03T08:08:49.585Z,998.36
2022-11-03T08:09:49.599Z,998.38
2022-11-03T08:10:49.740Z,998.33
2022-11-03T08:11:49.816Z,998.36
2022-11-03T08:12:49.562Z,998.33
2022-11-03T08:13:49.633Z,998.33
2022-11-03T08:14:49.662Z,998.31
2022-11-03T08:15:49.519Z,998.29
2022-11-03T08:16:49.497Z,998.36
2022-11-03T08:17:53.535Z,998.35
2022-11-03T08:18:49.508Z,998.31
2022-11-03T08:19:49.492Z,998.32
2022-11-03T08:20:49.476Z,998.29
2022-11-03T08:21:49.516Z,998.26
2022-11-03T08:23:05.048Z,998.25
2022-11-03T08:23:49.500Z,998.20
2022-11-03T08:24:49.497Z,998.17
2022-11-03T08:25:49.423Z,998.19
2022-11-03T08:26:49.431Z,998.16
2022-11-03T08:27:49.407Z,998.16
2022-11-03T08:28:49.391Z,998.15
2022-11-03T08:29:49.419Z,998.10
2022-11-03T08:30:49.377Z,998.11
2022-11-03T08:31:49.359Z,998.11
2022-11-03T08:32:49.333Z,998.09
2022-11-03T08:33:49.357Z,998.11
2022-11-03T08:34:49.361Z,998.07
2022-11-03T08:35:49.311Z,998.03
2022-11-03T08:36:49.290Z,998.02
2022-11-03T08:37:49.293Z,998.00
2022-11-03T08:38:49.298Z,998.00
2022-11-03T08:39:49.261Z,998.00
2022-11-03T08:40:54.189Z,997.98
2022-11-03T08:41:49.239Z,997.97
2022-11-03T08:42:49.269Z,997.99
2022-11-03T08:43:49.255Z,997.93
2022-11-03T08:44:49.234Z,997.93
2022-11-03T08:45:49.191Z,997.94
2022-11-03T08:46:49.221Z,997.93
2022-11-03T08:47:49.170Z,997.91
2022-11-03T08:48:49.200Z,997.92
2022-11-03T08:49:49.208Z,997.91
2022-11-03T08:50:49.155Z,997.94
2022-11-03T08:51:49.136Z,997.89
2022-11-03T08:52:49.118Z,997.91
2022-11-03T08:53:49.102Z,997.89
2022-11-03T08:54:49.165Z,997.86
2022-11-03T08:55:49.113Z,997.88
2022-11-03T08:56:49.085Z,997.86
2022-11-03T08:57:49.071Z,997.86
2022-11-03T08:58:49.112Z,997.84
2022-11-03T08:59:49.175Z,997.84
2022-11-03T09:00:49.077Z,997.85
2022-11-03T09:01:49.135Z,997.87
2022-11-03T09:02:49.036Z,997.86
2022-11-03T09:03:49.365Z,997.82
2022-11-03T09:04:54.831Z,997.81
2022-11-03T09:05:49.324Z,997.77
2022-11-03T09:06:49.008Z,997.78
2022-11-03T09:10:48.956Z,997.68
2022-11-03T09:11:48.928Z,997.68
2022-11-03T09:12:48.973Z,997.69
2022-11-03T09:13:48.893Z,997.66
2022-11-03T09:14:48.890Z,997.68
2022-11-03T09:15:48.881Z,997.70
2022-11-03T09:16:48.937Z,997.66
2022-11-03T09:17:48.848Z,997.63
2022-11-03T09:18:48.923Z,997.62
2022-11-03T09:19:48.832Z,997.60
2022-11-03T09:20:48.872Z,997.59
2022-11-03T09:21:49.116Z,997.58
2022-11-03T09:22:48.839Z,997.56
2022-11-03T09:23:48.789Z,997.52
2022-11-03T09:24:48.779Z,997.50
2022-11-03T09:25:48.776Z,997.46
2022-11-03T09:26:48.765Z,997.42
2022-11-03T09:27:48.756Z,997.42
2022-11-03T09:28:48.752Z,997.38
2022-11-03T09:30:11.647Z,997.39
2022-11-03T09:30:48.783Z,997.37
2022-11-03T09:31:48.709Z,997.36
2022-11-03T09:32:48.729Z,997.35
2022-11-03T09:33:48.700Z,997.33
2022-11-03T09:34:49.474Z,997.29
2022-11-03T09:35:48.652Z,997.31
2022-11-03T09:36:53.134Z,997.27
2022-11-03T09:37:48.670Z,997.24
2022-11-03T09:38:48.658Z,997.18
2022-11-03T09:39:48.805Z,997.15
2022-11-03T09:41:58.966Z,997.07
2022-11-03T09:42:48.629Z,997.03
2022-11-03T09:43:48.766Z,997.01
2022-11-03T09:44:48.583Z,996.98
2022-11-03T09:45:48.539Z,996.97
2022-11-03T09:46:49.083Z,996.97
2022-11-03T09:47:48.730Z,996.99
2022-11-03T09:48:48.577Z,996.99
2022-11-03T09:49:48.574Z,996.97
2022-11-03T09:50:48.540Z,996.96
2022-11-03T09:51:48.549Z,996.95
2022-11-03T09:52:51.581Z,996.91
2022-11-03T09:53:52.558Z,996.89
2022-11-03T09:54:48.571Z,996.94
2022-11-03T09:55:48.917Z,996.86
2022-11-03T09:56:48.451Z,996.80
2022-11-03T09:57:48.430Z,996.77
2022-11-03T09:58:53.024Z,996.79
2022-11-03T09:59:48.630Z,996.80
2022-11-03T10:00:48.492Z,996.82
2022-11-03T10:01:48.530Z,996.82
2022-11-03T10:02:48.392Z,996.81
2022-11-03T10:03:48.357Z,996.80
2022-11-03T10:04:48.427Z,996.78
2022-11-03T10:05:48.380Z,996.75
2022-11-03T10:06:48.324Z,996.71
2022-11-03T10:07:48.361Z,996.69
2022-11-03T10:08:48.326Z,996.67
2022-11-03T10:09:48.354Z,996.66
2022-11-03T10:10:48.291Z,996.65
2022-11-03T10:11:48.261Z,996.62
2022-11-03T10:12:48.267Z,996.55
2022-11-03T10:13:48.275Z,996.64
2022-11-03T10:14:48.261Z,996.61
2022-11-03T10:15:48.288Z,996.58
2022-11-03T10:16:53.156Z,996.57
2022-11-03T10:17:48.238Z,996.53
2022-11-03T10:18:48.214Z,996.54
2022-11-03T10:19:48.309Z,996.51
2022-11-03T10:20:48.211Z,996.52
2022-11-03T10:21:48.170Z,996.49
2022-11-03T10:22:48.218Z,996.50
2022-11-03T10:23:48.156Z,996.57
2022-11-03T10:24:48.138Z,996.50
2022-11-03T10:25:48.197Z,996.45
2022-11-03T10:26:48.158Z,996.44
2022-11-03T10:27:48.146Z,996.41
2022-11-03T10:28:48.096Z,996.32
2022-11-03T10:29:53.393Z,996.29
2022-11-03T10:31:10.034Z,996.25
2022-11-03T10:31:48.140Z,996.22
2022-11-03T10:32:48.094Z,996.15
2022-11-03T10:33:48.050Z,996.13
2022-11-03T10:34:48.068Z,996.13
2022-11-03T10:35:48.051Z,996.15
2022-11-03T10:36:50.583Z,996.17
2022-11-03T10:37:47.994Z,996.14
2022-11-03T10:38:48.055Z,996.10
2022-11-03T10:39:48.020Z,996.06
2022-11-03T10:40:48.779Z,996.11
2022-11-03T10:41:48.263Z,996.04
2022-11-03T10:42:47.946Z,996.00
2022-11-03T10:43:47.950Z,995.95
2022-11-03T10:44:47.953Z,995.91
2022-11-03T10:45:48.001Z,995.89
2022-11-03T10:46:51.041Z,995.87
2022-11-03T10:47:47.965Z,995.80
2022-11-03T10:48:47.894Z,995.80
2022-11-03T10:49:47.899Z,995.78
2022-11-03T10:50:47.870Z,995.78
2022-11-03T10:51:47.871Z,995.76
2022-11-03T10:52:47.834Z,995.68
2022-11-03T10:53:47.810Z,995.65
2022-11-03T10:54:47.840Z,995.53
2022-11-03T10:55:48.475Z,995.52
2022-11-03T10:56:47.796Z,995.46
2022-11-03T10:57:51.965Z,995.42
2022-11-03T10:58:47.839Z,995.44
2022-11-03T10:59:47.799Z,995.36
2022-11-03T11:00:48.205Z,995.36
2022-11-03T11:01:47.912Z,995.36
2022-11-03T11:02:47.796Z,995.38
2022-11-03T11:03:47.820Z,995.36
2022-11-03T11:04:47.832Z,995.41
2022-11-03T11:05:47.691Z,995.36
2022-11-03T11:06:47.694Z,995.36
2022-11-03T11:07:47.706Z,995.34
2022-11-03T11:08:47.702Z,995.32
2022-11-03T11:09:47.643Z,995.30
2022-11-03T11:10:47.667Z,995.33
2022-11-03T11:11:47.670Z,995.37
2022-11-03T11:12:47.624Z,995.36
2022-11-03T11:13:47.641Z,995.38
2022-11-03T11:14:47.599Z,995.40
2022-11-03T11:15:47.756Z,995.42
2022-11-03T11:16:47.575Z,995.40
2022-11-03T11:17:47.558Z,995.39
2022-11-03T11:18:47.561Z,995.38
2022-11-03T11:19:47.543Z,995.33
2022-11-03T11:20:47.592Z,995.32
2022-11-03T11:21:47.541Z,995.31
2022-11-03T11:22:47.563Z,995.29
2022-11-03T11:23:47.501Z,995.23
2022-11-03T11:24:47.523Z,995.16
2022-11-03T11:25:47.488Z,995.14
2022-11-03T11:26:47.793Z,995.08
2022-11-03T11:27:47.450Z,995.04
2022-11-03T11:28:47.569Z,995.01
2022-11-03T11:29:47.424Z,995.00
2022-11-03T11:30:50.680Z,994.99
2022-11-03T11:31:47.416Z,994.98
2022-11-03T11:32:47.416Z,994.97
2022-11-03T11:33:47.420Z,994.90
2022-11-03T11:34:47.398Z,994.92
2022-11-03T11:35:47.411Z,994.86
2022-11-03T11:36:47.398Z,994.87
2022-11-03T11:37:47.366Z,994.88
2022-11-03T11:38:47.355Z,994.85
2022-11-03T11:39:47.334Z,994.84
2022-11-03T11:40:47.317Z,994.75
2022-11-03T11:41:47.340Z,994.68
2022-11-03T11:42:47.310Z,994.64
2022-11-03T11:43:50.643Z,994.60
2022-11-03T11:44:47.293Z,994.65
2022-11-03T11:45:47.401Z,994.63
2022-11-03T11:46:47.294Z,994.59
2022-11-03T11:47:47.275Z,994.57
2022-11-03T11:48:47.266Z,994.57
2022-11-03T11:49:47.223Z,994.55
2022-11-03T11:50:47.264Z,994.55
2022-11-03T11:51:47.206Z,994.55
2022-11-03T11:52:47.198Z,994.57
2022-11-03T11:53:50.946Z,994.51
2022-11-03T11:54:47.210Z,994.49
2022-11-03T11:55:47.177Z,994.43
2022-11-03T11:56:47.171Z,994.38
2022-11-03T11:57:47.248Z,994.38
2022-11-03T11:58:47.136Z,994.36
2022-11-03T11:59:47.126Z,994.37
2022-11-03T12:00:47.110Z,994.32
2022-11-03T12:01:47.159Z,994.28
2022-11-03T12:02:47.115Z,994.28
2022-11-03T12:03:47.166Z,994.24
2022-11-03T12:04:47.086Z,994.24
2022-11-03T12:05:47.046Z,994.24
2022-11-03T12:06:47.096Z,994.25
2022-11-03T12:07:47.087Z,994.27
2022-11-03T12:08:47.093Z,994.24
2022-11-03T12:09:47.021Z,994.22
2022-11-03T12:10:47.107Z,994.22
2022-11-03T12:11:47.611Z,994.22
2022-11-03T12:12:46.978Z,994.17
2022-11-03T12:13:46.957Z,994.18
2022-11-03T12:14:46.965Z,994.14
2022-11-03T12:15:46.959Z,994.16
2022-11-03T12:16:46.977Z,994.16
2022-11-03T12:17:46.922Z,994.12
2022-11-03T12:18:50.488Z,994.11
2022-11-03T12:19:46.919Z,994.06
2022-11-03T12:20:46.950Z,994.04
2022-11-03T12:21:46.970Z,994.03
2022-11-03T12:22:46.883Z,994.00
2022-11-03T12:23:46.904Z,993.99
2022-11-03T12:24:46.983Z,993.97
2022-11-03T12:25:46.957Z,993.92